ダーウィン の空港の天気 - METARとTAF

ダーウィン国際空港 ( YPDN / DRW ) - オーストラリア ノーザンテリトリーダーウィン
飛行場実況気象(Metar)
観測時間04/22 00:30 ACST (04/21 15:00 UTC)
風向・風速北東 2m/s
視程10km以上
天気現象
なし
気温26℃
湿度84%
気圧1011hPa
METARYPDN 211500Z AUTO 05004KT 9999 // NCD 26/23 Q1011
過去の天気等 Google飛行場航空写真 Wunderground天気予報

過去48時間のMETAR

飛行場予報(TAF)
発表時間: 4/21 20:26 ACST (4/21 10:56 UTC)
予報対象時間: 21日21時 ACST ~ 23日3時 ACST
風向・風速西南西 3m/s
視程10km以上
少しの雲 雲底高度 610m
22日3時 ACST から
風向・風速東南東 3m/s
視程10km以上
少しの雲 雲底高度 610m
22日9時 ACST から
風向・風速東 4m/s
視程10km以上
少しの雲 雲底高度 910m
22日14時 ACST から
風向・風速北 5m/s
視程10km以上
なし
22日21時 ACST から
風向・風速西南西 3m/s
視程10km以上
少しの雲 雲底高度 610m
TAF YPDN 211056Z 2112/2218 25005KT 9999 FEW020
FM211800 11005KT 9999 FEW020
FM220000 08008KT 9999 FEW030
FM220500 35009KT CAVOK
FM221200 25005KT 9999 FEW020